sensor_id;sensor_type;location;lat;lon;timestamp;temperature;humidity
14411;DHT22;7290;50.854;4.354;2023-06-04T00:00:07;18.10;78.30
14411;DHT22;7290;50.854;4.354;2023-06-04T00:02:34;17.90;78.70
14411;DHT22;7290;50.854;4.354;2023-06-04T00:05:00;17.90;79.00
14411;DHT22;7290;50.854;4.354;2023-06-04T00:07:26;17.90;79.30
14411;DHT22;7290;50.854;4.354;2023-06-04T00:09:52;17.80;79.80
14411;DHT22;7290;50.854;4.354;2023-06-04T00:12:19;17.80;80.00
14411;DHT22;7290;50.854;4.354;2023-06-04T00:14:45;17.70;80.20
14411;DHT22;7290;50.854;4.354;2023-06-04T00:17:12;17.60;80.50
14411;DHT22;7290;50.854;4.354;2023-06-04T00:19:39;17.60;81.00
14411;DHT22;7290;50.854;4.354;2023-06-04T00:22:06;17.60;80.90
14411;DHT22;7290;50.854;4.354;2023-06-04T00:24:32;17.60;80.80
14411;DHT22;7290;50.854;4.354;2023-06-04T00:26:59;17.80;80.80
14411;DHT22;7290;50.854;4.354;2023-06-04T00:29:25;17.70;81.00
14411;DHT22;7290;50.854;4.354;2023-06-04T00:31:51;17.70;81.00
14411;DHT22;7290;50.854;4.354;2023-06-04T00:34:18;17.60;81.30
14411;DHT22;7290;50.854;4.354;2023-06-04T00:36:45;17.50;81.60
14411;DHT22;7290;50.854;4.354;2023-06-04T00:39:11;17.40;82.00
14411;DHT22;7290;50.854;4.354;2023-06-04T00:41:37;17.40;82.50
14411;DHT22;7290;50.854;4.354;2023-06-04T00:44:03;17.30;83.00
14411;DHT22;7290;50.854;4.354;2023-06-04T00:46:32;17.20;83.40
14411;DHT22;7290;50.854;4.354;2023-06-04T00:48:58;17.10;83.60
14411;DHT22;7290;50.854;4.354;2023-06-04T00:51:25;17.20;83.80
14411;DHT22;7290;50.854;4.354;2023-06-04T00:53:52;17.10;83.70
14411;DHT22;7290;50.854;4.354;2023-06-04T00:56:19;17.20;83.80
14411;DHT22;7290;50.854;4.354;2023-06-04T00:58:45;17.10;83.90
14411;DHT22;7290;50.854;4.354;2023-06-04T01:01:18;17.10;83.80
14411;DHT22;7290;50.854;4.354;2023-06-04T01:03:48;17.00;84.40
14411;DHT22;7290;50.854;4.354;2023-06-04T01:06:21;16.90;84.90
14411;DHT22;7290;50.854;4.354;2023-06-04T01:08:52;16.90;84.90
14411;DHT22;7290;50.854;4.354;2023-06-04T01:11:31;16.90;85.00
14411;DHT22;7290;50.854;4.354;2023-06-04T01:13:57;16.90;85.00
14411;DHT22;7290;50.854;4.354;2023-06-04T01:16:23;16.90;85.00
14411;DHT22;7290;50.854;4.354;2023-06-04T01:18:51;16.80;85.90
14411;DHT22;7290;50.854;4.354;2023-06-04T01:21:17;16.80;85.40
14411;DHT22;7290;50.854;4.354;2023-06-04T01:23:46;16.70;85.60
14411;DHT22;7290;50.854;4.354;2023-06-04T01:26:15;16.60;86.00
14411;DHT22;7290;50.854;4.354;2023-06-04T01:28:42;16.60;86.20
14411;DHT22;7290;50.854;4.354;2023-06-04T01:31:08;16.60;86.30
14411;DHT22;7290;50.854;4.354;2023-06-04T01:33:35;16.50;86.80
14411;DHT22;7290;50.854;4.354;2023-06-04T01:36:01;16.40;87.10
14411;DHT22;7290;50.854;4.354;2023-06-04T01:38:27;16.40;87.40
14411;DHT22;7290;50.854;4.354;2023-06-04T01:40:54;16.40;87.40
14411;DHT22;7290;50.854;4.354;2023-06-04T01:43:23;16.40;87.70
14411;DHT22;7290;50.854;4.354;2023-06-04T01:45:49;16.30;88.30
14411;DHT22;7290;50.854;4.354;2023-06-04T01:48:15;16.30;88.50
14411;DHT22;7290;50.854;4.354;2023-06-04T01:50:42;16.20;88.80
14411;DHT22;7290;50.854;4.354;2023-06-04T01:53:08;16.20;89.20
14411;DHT22;7290;50.854;4.354;2023-06-04T01:55:34;16.20;89.40
14411;DHT22;7290;50.854;4.354;2023-06-04T01:58:00;16.20;89.90
14411;DHT22;7290;50.854;4.354;2023-06-04T02:00:28;16.10;90.10
14411;DHT22;7290;50.854;4.354;2023-06-04T02:02:55;16.00;90.40
14411;DHT22;7290;50.854;4.354;2023-06-04T02:05:22;16.00;90.50
14411;DHT22;7290;50.854;4.354;2023-06-04T02:07:48;16.00;90.70
14411;DHT22;7290;50.854;4.354;2023-06-04T02:10:16;16.00;90.80
14411;DHT22;7290;50.854;4.354;2023-06-04T02:12:53;16.00;91.00
14411;DHT22;7290;50.854;4.354;2023-06-04T02:15:21;15.90;91.30
14411;DHT22;7290;50.854;4.354;2023-06-04T02:17:49;15.80;91.80
14411;DHT22;7290;50.854;4.354;2023-06-04T02:20:16;15.80;91.70
14411;DHT22;7290;50.854;4.354;2023-06-04T02:22:43;15.90;91.80
14411;DHT22;7290;50.854;4.354;2023-06-04T02:25:09;15.80;92.00
14411;DHT22;7290;50.854;4.354;2023-06-04T02:27:35;15.80;92.20
14411;DHT22;7290;50.854;4.354;2023-06-04T02:30:01;15.80;92.30
14411;DHT22;7290;50.854;4.354;2023-06-04T02:32:27;15.80;92.70
14411;DHT22;7290;50.854;4.354;2023-06-04T02:34:55;16.00;92.40
14411;DHT22;7290;50.854;4.354;2023-06-04T02:37:22;15.90;92.60
14411;DHT22;7290;50.854;4.354;2023-06-04T02:39:48;15.80;92.50
14411;DHT22;7290;50.854;4.354;2023-06-04T02:42:14;15.80;92.70
14411;DHT22;7290;50.854;4.354;2023-06-04T02:44:40;15.80;92.90
14411;DHT22;7290;50.854;4.354;2023-06-04T02:47:07;15.80;93.00
14411;DHT22;7290;50.854;4.354;2023-06-04T02:49:33;15.80;92.90
14411;DHT22;7290;50.854;4.354;2023-06-04T02:52:00;15.80;93.10
14411;DHT22;7290;50.854;4.354;2023-06-04T02:54:26;15.80;93.10
14411;DHT22;7290;50.854;4.354;2023-06-04T02:56:53;15.70;93.40
14411;DHT22;7290;50.854;4.354;2023-06-04T02:59:19;15.70;93.60
14411;DHT22;7290;50.854;4.354;2023-06-04T03:01:45;15.70;93.60
14411;DHT22;7290;50.854;4.354;2023-06-04T03:04:11;15.60;93.80
14411;DHT22;7290;50.854;4.354;2023-06-04T03:06:41;15.60;93.90
14411;DHT22;7290;50.854;4.354;2023-06-04T03:09:10;15.60;94.00
14411;DHT22;7290;50.854;4.354;2023-06-04T03:11:37;15.50;94.30
14411;DHT22;7290;50.854;4.354;2023-06-04T03:14:03;15.60;94.40
14411;DHT22;7290;50.854;4.354;2023-06-04T03:16:29;15.50;94.60
14411;DHT22;7290;50.854;4.354;2023-06-04T03:18:55;15.30;94.90
14411;DHT22;7290;50.854;4.354;2023-06-04T03:21:22;15.30;95.30
14411;DHT22;7290;50.854;4.354;2023-06-04T03:23:50;15.10;95.80
14411;DHT22;7290;50.854;4.354;2023-06-04T03:26:17;15.00;96.10
14411;DHT22;7290;50.854;4.354;2023-06-04T03:28:43;15.00;96.40
14411;DHT22;7290;50.854;4.354;2023-06-04T03:31:10;15.00;96.70
14411;DHT22;7290;50.854;4.354;2023-06-04T03:33:36;15.00;96.80
14411;DHT22;7290;50.854;4.354;2023-06-04T03:36:02;15.00;97.00
14411;DHT22;7290;50.854;4.354;2023-06-04T03:38:28;15.10;97.20
14411;DHT22;7290;50.854;4.354;2023-06-04T03:40:55;15.00;97.50
14411;DHT22;7290;50.854;4.354;2023-06-04T03:43:22;15.10;97.70
14411;DHT22;7290;50.854;4.354;2023-06-04T03:45:48;15.20;97.50
14411;DHT22;7290;50.854;4.354;2023-06-04T03:48:14;15.30;97.50
14411;DHT22;7290;50.854;4.354;2023-06-04T03:50:40;15.30;97.60
14411;DHT22;7290;50.854;4.354;2023-06-04T03:53:06;15.40;97.60
14411;DHT22;7290;50.854;4.354;2023-06-04T03:55:33;15.30;97.70
14411;DHT22;7290;50.854;4.354;2023-06-04T03:57:59;15.20;97.90
14411;DHT22;7290;50.854;4.354;2023-06-04T04:00:26;15.30;98.10
14411;DHT22;7290;50.854;4.354;2023-06-04T04:02:52;15.20;98.40
14411;DHT22;7290;50.854;4.354;2023-06-04T04:05:19;15.30;98.50
14411;DHT22;7290;50.854;4.354;2023-06-04T04:07:45;15.30;98.50
14411;DHT22;7290;50.854;4.354;2023-06-04T04:10:13;15.20;98.90
14411;DHT22;7290;50.854;4.354;2023-06-04T04:12:39;15.00;99.20
14411;DHT22;7290;50.854;4.354;2023-06-04T04:15:06;14.90;99.80
14411;DHT22;7290;50.854;4.354;2023-06-04T04:17:35;14.90;99.90
14411;DHT22;7290;50.854;4.354;2023-06-04T04:20:01;15.10;99.90
14411;DHT22;7290;50.854;4.354;2023-06-04T04:22:31;15.10;99.90
14411;DHT22;7290;50.854;4.354;2023-06-04T04:24:58;15.10;99.90
14411;DHT22;7290;50.854;4.354;2023-06-04T04:27:24;15.20;99.90
14411;DHT22;7290;50.854;4.354;2023-06-04T04:29:50;15.10;99.90
14411;DHT22;7290;50.854;4.354;2023-06-04T04:32:20;15.20;99.90
14411;DHT22;7290;50.854;4.354;2023-06-04T04:34:53;15.10;99.90
14411;DHT22;7290;50.854;4.354;2023-06-04T04:37:20;15.20;99.90
14411;DHT22;7290;50.854;4.354;2023-06-04T04:39:47;15.10;99.90
14411;DHT22;7290;50.854;4.354;2023-06-04T04:42:17;15.00;99.90
14411;DHT22;7290;50.854;4.354;2023-06-04T04:44:44;15.00;99.90
14411;DHT22;7290;50.854;4.354;2023-06-04T04:47:12;15.20;99.90
14411;DHT22;7290;50.854;4.354;2023-06-04T04:49:39;15.20;99.90
14411;DHT22;7290;50.854;4.354;2023-06-04T04:52:05;15.20;99.90
14411;DHT22;7290;50.854;4.354;2023-06-04T04:54:31;15.40;99.90
14411;DHT22;7290;50.854;4.354;2023-06-04T04:56:58;15.60;99.90
14411;DHT22;7290;50.854;4.354;2023-06-04T04:59:24;16.60;99.90
14411;DHT22;7290;50.854;4.354;2023-06-04T05:01:50;17.50;98.70
14411;DHT22;7290;50.854;4.354;2023-06-04T05:04:16;18.80;96.80
14411;DHT22;7290;50.854;4.354;2023-06-04T05:06:42;19.90;95.00
14411;DHT22;7290;50.854;4.354;2023-06-04T05:09:09;20.10;93.70
14411;DHT22;7290;50.854;4.354;2023-06-04T05:11:35;21.00;92.70
14411;DHT22;7290;50.854;4.354;2023-06-04T05:14:01;21.40;91.70
14411;DHT22;7290;50.854;4.354;2023-06-04T05:16:34;21.70;91.20
14411;DHT22;7290;50.854;4.354;2023-06-04T05:19:01;22.50;90.10
14411;DHT22;7290;50.854;4.354;2023-06-04T05:21:28;23.00;88.60
14411;DHT22;7290;50.854;4.354;2023-06-04T05:23:54;23.70;86.80
14411;DHT22;7290;50.854;4.354;2023-06-04T05:26:21;24.30;84.60
14411;DHT22;7290;50.854;4.354;2023-06-04T05:28:48;24.50;83.30
14411;DHT22;7290;50.854;4.354;2023-06-04T05:31:14;24.50;82.80
14411;DHT22;7290;50.854;4.354;2023-06-04T05:33:43;24.70;82.10
14411;DHT22;7290;50.854;4.354;2023-06-04T05:36:10;24.80;81.60
14411;DHT22;7290;50.854;4.354;2023-06-04T05:38:36;24.50;82.20
14411;DHT22;7290;50.854;4.354;2023-06-04T05:41:03;25.00;81.20
14411;DHT22;7290;50.854;4.354;2023-06-04T05:43:30;25.10;80.20
14411;DHT22;7290;50.854;4.354;2023-06-04T05:45:56;25.40;80.00
14411;DHT22;7290;50.854;4.354;2023-06-04T05:48:22;25.70;79.00
14411;DHT22;7290;50.854;4.354;2023-06-04T05:50:48;25.80;78.70
14411;DHT22;7290;50.854;4.354;2023-06-04T05:53:15;25.70;78.60
14411;DHT22;7290;50.854;4.354;2023-06-04T05:55:41;26.40;77.40
14411;DHT22;7290;50.854;4.354;2023-06-04T05:58:07;26.90;75.90
14411;DHT22;7290;50.854;4.354;2023-06-04T06:00:34;26.50;76.20
14411;DHT22;7290;50.854;4.354;2023-06-04T06:03:01;26.00;77.70
14411;DHT22;7290;50.854;4.354;2023-06-04T06:05:27;26.30;76.40
14411;DHT22;7290;50.854;4.354;2023-06-04T06:07:53;26.10;77.00
14411;DHT22;7290;50.854;4.354;2023-06-04T06:10:21;26.10;77.70
14411;DHT22;7290;50.854;4.354;2023-06-04T06:12:47;26.60;75.90
14411;DHT22;7290;50.854;4.354;2023-06-04T06:15:14;26.80;75.40
14411;DHT22;7290;50.854;4.354;2023-06-04T06:17:41;26.60;75.50
14411;DHT22;7290;50.854;4.354;2023-06-04T06:20:08;26.30;75.60
14411;DHT22;7290;50.854;4.354;2023-06-04T06:22:34;25.80;77.00
14411;DHT22;7290;50.854;4.354;2023-06-04T06:25:01;25.90;76.60
14411;DHT22;7290;50.854;4.354;2023-06-04T06:27:28;26.40;75.90
14411;DHT22;7290;50.854;4.354;2023-06-04T06:29:54;26.70;75.10
14411;DHT22;7290;50.854;4.354;2023-06-04T06:32:22;27.60;73.30
14411;DHT22;7290;50.854;4.354;2023-06-04T06:34:49;28.00;72.20
14411;DHT22;7290;50.854;4.354;2023-06-04T06:37:15;28.40;70.80
14411;DHT22;7290;50.854;4.354;2023-06-04T06:39:41;28.40;70.80
14411;DHT22;7290;50.854;4.354;2023-06-04T06:42:08;28.50;70.30
14411;DHT22;7290;50.854;4.354;2023-06-04T06:44:34;28.20;70.60
14411;DHT22;7290;50.854;4.354;2023-06-04T06:47:00;28.00;70.90
14411;DHT22;7290;50.854;4.354;2023-06-04T06:49:26;28.70;69.90
14411;DHT22;7290;50.854;4.354;2023-06-04T06:51:53;28.50;70.10
14411;DHT22;7290;50.854;4.354;2023-06-04T06:54:19;28.10;70.50
14411;DHT22;7290;50.854;4.354;2023-06-04T06:56:47;28.30;70.30
14411;DHT22;7290;50.854;4.354;2023-06-04T06:59:14;27.80;70.50
14411;DHT22;7290;50.854;4.354;2023-06-04T07:01:40;28.80;69.60
14411;DHT22;7290;50.854;4.354;2023-06-04T07:04:06;29.60;68.00
14411;DHT22;7290;50.854;4.354;2023-06-04T07:06:33;28.80;69.10
14411;DHT22;7290;50.854;4.354;2023-06-04T07:09:00;29.00;68.60
14411;DHT22;7290;50.854;4.354;2023-06-04T07:11:26;29.40;68.20
14411;DHT22;7290;50.854;4.354;2023-06-04T07:13:52;28.90;67.80
14411;DHT22;7290;50.854;4.354;2023-06-04T07:16:18;28.30;68.80
14411;DHT22;7290;50.854;4.354;2023-06-04T07:18:47;28.40;68.70
14411;DHT22;7290;50.854;4.354;2023-06-04T07:21:14;29.10;66.90
14411;DHT22;7290;50.854;4.354;2023-06-04T07:23:40;29.20;66.50
14411;DHT22;7290;50.854;4.354;2023-06-04T07:26:07;29.60;66.30
14411;DHT22;7290;50.854;4.354;2023-06-04T07:28:34;29.70;66.00
14411;DHT22;7290;50.854;4.354;2023-06-04T07:31:01;29.70;65.30
14411;DHT22;7290;50.854;4.354;2023-06-04T07:33:27;29.00;65.90
14411;DHT22;7290;50.854;4.354;2023-06-04T07:35:53;29.20;65.20
14411;DHT22;7290;50.854;4.354;2023-06-04T07:38:19;30.60;63.60
14411;DHT22;7290;50.854;4.354;2023-06-04T07:40:46;30.90;62.50
14411;DHT22;7290;50.854;4.354;2023-06-04T07:43:13;31.40;61.50
14411;DHT22;7290;50.854;4.354;2023-06-04T07:45:40;31.60;61.10
14411;DHT22;7290;50.854;4.354;2023-06-04T07:48:06;31.20;61.60
14411;DHT22;7290;50.854;4.354;2023-06-04T07:50:32;31.00;61.50
14411;DHT22;7290;50.854;4.354;2023-06-04T07:52:58;30.80;61.40
14411;DHT22;7290;50.854;4.354;2023-06-04T07:55:24;30.30;62.30
14411;DHT22;7290;50.854;4.354;2023-06-04T07:57:50;31.00;61.60
14411;DHT22;7290;50.854;4.354;2023-06-04T08:00:17;32.00;59.80
14411;DHT22;7290;50.854;4.354;2023-06-04T08:02:44;32.90;58.50
14411;DHT22;7290;50.854;4.354;2023-06-04T08:05:10;32.90;58.00
14411;DHT22;7290;50.854;4.354;2023-06-04T08:07:39;32.50;58.50
14411;DHT22;7290;50.854;4.354;2023-06-04T08:10:06;32.30;58.40
14411;DHT22;7290;50.854;4.354;2023-06-04T08:12:33;32.00;58.80
14411;DHT22;7290;50.854;4.354;2023-06-04T08:14:59;32.50;58.40
14411;DHT22;7290;50.854;4.354;2023-06-04T08:17:26;31.80;58.70
14411;DHT22;7290;50.854;4.354;2023-06-04T08:19:52;31.80;58.40
14411;DHT22;7290;50.854;4.354;2023-06-04T08:22:18;31.70;58.30
14411;DHT22;7290;50.854;4.354;2023-06-04T08:24:45;32.30;58.20
14411;DHT22;7290;50.854;4.354;2023-06-04T08:27:11;32.90;57.40
14411;DHT22;7290;50.854;4.354;2023-06-04T08:29:37;32.90;56.90
14411;DHT22;7290;50.854;4.354;2023-06-04T08:32:05;32.90;56.30
14411;DHT22;7290;50.854;4.354;2023-06-04T08:34:33;33.00;55.80
14411;DHT22;7290;50.854;4.354;2023-06-04T08:36:59;32.70;55.70
14411;DHT22;7290;50.854;4.354;2023-06-04T08:39:26;33.10;55.20
14411;DHT22;7290;50.854;4.354;2023-06-04T08:41:54;33.50;54.60
14411;DHT22;7290;50.854;4.354;2023-06-04T08:44:20;33.70;54.30
14411;DHT22;7290;50.854;4.354;2023-06-04T08:46:51;30.60;56.20
14411;DHT22;7290;50.854;4.354;2023-06-04T08:49:18;30.50;55.70
14411;DHT22;7290;50.854;4.354;2023-06-04T08:51:47;30.70;56.70
14411;DHT22;7290;50.854;4.354;2023-06-04T08:54:16;30.60;56.40
14411;DHT22;7290;50.854;4.354;2023-06-04T08:56:43;30.80;56.00
14411;DHT22;7290;50.854;4.354;2023-06-04T08:59:10;31.70;55.40
14411;DHT22;7290;50.854;4.354;2023-06-04T09:01:36;29.20;57.60
14411;DHT22;7290;50.854;4.354;2023-06-04T09:04:04;29.10;58.50
14411;DHT22;7290;50.854;4.354;2023-06-04T09:06:32;30.90;57.30
14411;DHT22;7290;50.854;4.354;2023-06-04T09:09:02;31.70;55.80
14411;DHT22;7290;50.854;4.354;2023-06-04T09:11:33;32.50;54.70
14411;DHT22;7290;50.854;4.354;2023-06-04T09:14:04;33.10;54.10
14411;DHT22;7290;50.854;4.354;2023-06-04T09:16:41;33.50;53.30
14411;DHT22;7290;50.854;4.354;2023-06-04T09:19:08;34.50;52.70
14411;DHT22;7290;50.854;4.354;2023-06-04T09:21:34;35.00;51.70
14411;DHT22;7290;50.854;4.354;2023-06-04T09:24:00;35.30;51.50
14411;DHT22;7290;50.854;4.354;2023-06-04T09:26:27;35.20;50.70
14411;DHT22;7290;50.854;4.354;2023-06-04T09:28:53;33.40;51.80
14411;DHT22;7290;50.854;4.354;2023-06-04T09:31:20;33.80;51.70
14411;DHT22;7290;50.854;4.354;2023-06-04T09:33:52;33.70;51.90
14411;DHT22;7290;50.854;4.354;2023-06-04T09:36:23;32.00;52.80
14411;DHT22;7290;50.854;4.354;2023-06-04T09:38:55;30.50;55.10
14411;DHT22;7290;50.854;4.354;2023-06-04T09:41:22;31.20;55.10
14411;DHT22;7290;50.854;4.354;2023-06-04T09:43:49;31.30;54.20
14411;DHT22;7290;50.854;4.354;2023-06-04T09:46:17;30.20;54.80
14411;DHT22;7290;50.854;4.354;2023-06-04T09:48:44;29.00;55.70
14411;DHT22;7290;50.854;4.354;2023-06-04T09:51:11;29.20;56.40
14411;DHT22;7290;50.854;4.354;2023-06-04T09:53:38;31.10;55.00
14411;DHT22;7290;50.854;4.354;2023-06-04T09:56:05;31.80;54.10
14411;DHT22;7290;50.854;4.354;2023-06-04T09:58:33;31.80;52.90
14411;DHT22;7290;50.854;4.354;2023-06-04T10:01:00;30.70;53.60
14411;DHT22;7290;50.854;4.354;2023-06-04T10:03:30;29.90;54.70
14411;DHT22;7290;50.854;4.354;2023-06-04T10:05:57;29.80;54.70
14411;DHT22;7290;50.854;4.354;2023-06-04T10:08:23;29.50;55.30
14411;DHT22;7290;50.854;4.354;2023-06-04T10:10:52;29.20;55.50
14411;DHT22;7290;50.854;4.354;2023-06-04T10:13:21;28.80;56.70
14411;DHT22;7290;50.854;4.354;2023-06-04T10:15:49;30.90;54.80
14411;DHT22;7290;50.854;4.354;2023-06-04T10:18:16;32.30;53.10
14411;DHT22;7290;50.854;4.354;2023-06-04T10:20:44;31.80;53.00
14411;DHT22;7290;50.854;4.354;2023-06-04T10:23:11;32.80;52.20
14411;DHT22;7290;50.854;4.354;2023-06-04T10:25:37;33.10;51.70
14411;DHT22;7290;50.854;4.354;2023-06-04T10:28:04;34.10;50.80
14411;DHT22;7290;50.854;4.354;2023-06-04T10:30:30;34.20;50.90
14411;DHT22;7290;50.854;4.354;2023-06-04T10:32:57;34.30;50.40
14411;DHT22;7290;50.854;4.354;2023-06-04T10:35:34;34.20;50.70
14411;DHT22;7290;50.854;4.354;2023-06-04T10:38:07;33.70;50.80
14411;DHT22;7290;50.854;4.354;2023-06-04T10:40:34;33.00;50.10
14411;DHT22;7290;50.854;4.354;2023-06-04T10:43:05;32.80;51.30
14411;DHT22;7290;50.854;4.354;2023-06-04T10:45:31;31.50;52.40
14411;DHT22;7290;50.854;4.354;2023-06-04T10:48:00;29.50;54.50
14411;DHT22;7290;50.854;4.354;2023-06-04T10:50:27;30.40;54.80
14411;DHT22;7290;50.854;4.354;2023-06-04T10:52:54;31.50;53.70
14411;DHT22;7290;50.854;4.354;2023-06-04T10:55:22;32.00;52.50
14411;DHT22;7290;50.854;4.354;2023-06-04T10:57:52;32.60;52.40
14411;DHT22;7290;50.854;4.354;2023-06-04T11:00:19;32.90;51.70
14411;DHT22;7290;50.854;4.354;2023-06-04T11:02:52;33.70;50.70
14411;DHT22;7290;50.854;4.354;2023-06-04T11:05:20;33.00;50.90
14411;DHT22;7290;50.854;4.354;2023-06-04T11:07:48;32.80;51.20
14411;DHT22;7290;50.854;4.354;2023-06-04T11:10:16;32.50;51.00
14411;DHT22;7290;50.854;4.354;2023-06-04T11:12:43;32.80;50.70
14411;DHT22;7290;50.854;4.354;2023-06-04T11:15:10;31.30;52.70
14411;DHT22;7290;50.854;4.354;2023-06-04T11:17:36;32.30;51.90
14411;DHT22;7290;50.854;4.354;2023-06-04T11:20:02;33.20;51.40
14411;DHT22;7290;50.854;4.354;2023-06-04T11:22:33;33.40;50.20
14411;DHT22;7290;50.854;4.354;2023-06-04T11:24:59;33.30;49.50
14411;DHT22;7290;50.854;4.354;2023-06-04T11:27:25;34.10;49.30
14411;DHT22;7290;50.854;4.354;2023-06-04T11:29:51;34.40;48.50
14411;DHT22;7290;50.854;4.354;2023-06-04T11:32:24;32.10;49.60
14411;DHT22;7290;50.854;4.354;2023-06-04T11:34:50;30.70;51.80
14411;DHT22;7290;50.854;4.354;2023-06-04T11:37:16;31.30;51.90
14411;DHT22;7290;50.854;4.354;2023-06-04T11:39:43;32.30;51.00
14411;DHT22;7290;50.854;4.354;2023-06-04T11:42:10;33.20;50.60
14411;DHT22;7290;50.854;4.354;2023-06-04T11:44:36;33.30;49.80
14411;DHT22;7290;50.854;4.354;2023-06-04T11:47:05;32.80;50.30
14411;DHT22;7290;50.854;4.354;2023-06-04T11:49:37;32.30;50.40
14411;DHT22;7290;50.854;4.354;2023-06-04T11:52:04;32.50;50.70
14411;DHT22;7290;50.854;4.354;2023-06-04T11:54:32;32.80;49.70
14411;DHT22;7290;50.854;4.354;2023-06-04T11:57:05;32.60;49.90
14411;DHT22;7290;50.854;4.354;2023-06-04T11:59:31;32.80;49.80
14411;DHT22;7290;50.854;4.354;2023-06-04T12:01:57;33.00;50.30
14411;DHT22;7290;50.854;4.354;2023-06-04T12:04:24;33.40;50.00
14411;DHT22;7290;50.854;4.354;2023-06-04T12:06:56;34.10;49.30
14411;DHT22;7290;50.854;4.354;2023-06-04T12:09:26;34.40;48.80
14411;DHT22;7290;50.854;4.354;2023-06-04T12:11:58;34.50;48.20
14411;DHT22;7290;50.854;4.354;2023-06-04T12:14:25;33.60;48.40
14411;DHT22;7290;50.854;4.354;2023-06-04T12:16:55;33.10;48.80
14411;DHT22;7290;50.854;4.354;2023-06-04T12:19:22;30.30;51.50
14411;DHT22;7290;50.854;4.354;2023-06-04T12:22:02;28.10;54.30
14411;DHT22;7290;50.854;4.354;2023-06-04T12:24:29;27.30;55.80
14411;DHT22;7290;50.854;4.354;2023-06-04T12:27:03;27.40;55.90
14411;DHT22;7290;50.854;4.354;2023-06-04T12:29:31;27.30;55.50
14411;DHT22;7290;50.854;4.354;2023-06-04T12:32:04;27.10;55.90
14411;DHT22;7290;50.854;4.354;2023-06-04T12:34:31;27.00;56.50
14411;DHT22;7290;50.854;4.354;2023-06-04T12:36:57;27.00;56.70
14411;DHT22;7290;50.854;4.354;2023-06-04T12:39:23;27.10;56.40
14411;DHT22;7290;50.854;4.354;2023-06-04T12:41:49;27.10;55.40
14411;DHT22;7290;50.854;4.354;2023-06-04T12:44:15;26.30;56.30
14411;DHT22;7290;50.854;4.354;2023-06-04T12:46:42;26.20;57.20
14411;DHT22;7290;50.854;4.354;2023-06-04T12:49:08;26.50;57.40
14411;DHT22;7290;50.854;4.354;2023-06-04T12:51:35;26.90;57.00
14411;DHT22;7290;50.854;4.354;2023-06-04T12:54:02;27.30;56.40
14411;DHT22;7290;50.854;4.354;2023-06-04T12:56:28;27.50;56.50
14411;DHT22;7290;50.854;4.354;2023-06-04T12:58:54;27.10;56.40
14411;DHT22;7290;50.854;4.354;2023-06-04T13:01:21;27.10;57.30
14411;DHT22;7290;50.854;4.354;2023-06-04T13:03:53;27.20;56.30
14411;DHT22;7290;50.854;4.354;2023-06-04T13:06:21;26.80;56.40
14411;DHT22;7290;50.854;4.354;2023-06-04T13:08:48;25.90;57.80
14411;DHT22;7290;50.854;4.354;2023-06-04T13:11:15;25.60;58.90
14411;DHT22;7290;50.854;4.354;2023-06-04T13:13:41;26.00;58.20
14411;DHT22;7290;50.854;4.354;2023-06-04T13:16:08;26.40;57.50
14411;DHT22;7290;50.854;4.354;2023-06-04T13:18:34;26.30;56.50
14411;DHT22;7290;50.854;4.354;2023-06-04T13:21:01;25.90;57.10
14411;DHT22;7290;50.854;4.354;2023-06-04T13:23:27;26.00;57.30
14411;DHT22;7290;50.854;4.354;2023-06-04T13:25:53;25.80;57.70
14411;DHT22;7290;50.854;4.354;2023-06-04T13:28:20;26.40;57.60
14411;DHT22;7290;50.854;4.354;2023-06-04T13:30:46;26.50;57.00
14411;DHT22;7290;50.854;4.354;2023-06-04T13:33:12;26.60;57.20
14411;DHT22;7290;50.854;4.354;2023-06-04T13:35:39;26.20;57.20
14411;DHT22;7290;50.854;4.354;2023-06-04T13:38:06;26.10;57.30
14411;DHT22;7290;50.854;4.354;2023-06-04T13:40:34;26.00;57.70
14411;DHT22;7290;50.854;4.354;2023-06-04T13:43:00;26.40;57.20
14411;DHT22;7290;50.854;4.354;2023-06-04T13:45:28;26.90;56.00
14411;DHT22;7290;50.854;4.354;2023-06-04T13:47:54;27.00;55.50
14411;DHT22;7290;50.854;4.354;2023-06-04T13:50:20;27.00;55.20
14411;DHT22;7290;50.854;4.354;2023-06-04T13:52:46;26.10;56.40
14411;DHT22;7290;50.854;4.354;2023-06-04T13:55:13;26.20;56.70
14411;DHT22;7290;50.854;4.354;2023-06-04T13:57:40;26.60;56.30
14411;DHT22;7290;50.854;4.354;2023-06-04T14:00:07;26.80;55.90
14411;DHT22;7290;50.854;4.354;2023-06-04T14:02:33;26.90;55.40
14411;DHT22;7290;50.854;4.354;2023-06-04T14:04:59;26.60;56.10
14411;DHT22;7290;50.854;4.354;2023-06-04T14:07:25;26.70;56.30
14411;DHT22;7290;50.854;4.354;2023-06-04T14:09:51;26.90;56.20
14411;DHT22;7290;50.854;4.354;2023-06-04T14:12:21;26.70;55.40
14411;DHT22;7290;50.854;4.354;2023-06-04T14:14:47;26.70;55.80
14411;DHT22;7290;50.854;4.354;2023-06-04T14:17:13;26.70;55.80
14411;DHT22;7290;50.854;4.354;2023-06-04T14:19:39;26.70;55.80
14411;DHT22;7290;50.854;4.354;2023-06-04T14:22:06;27.00;55.80
14411;DHT22;7290;50.854;4.354;2023-06-04T14:24:32;27.00;55.40
14411;DHT22;7290;50.854;4.354;2023-06-04T14:26:58;27.30;55.40
14411;DHT22;7290;50.854;4.354;2023-06-04T14:29:25;27.60;54.70
14411;DHT22;7290;50.854;4.354;2023-06-04T14:31:51;27.40;54.40
14411;DHT22;7290;50.854;4.354;2023-06-04T14:34:17;27.40;54.20
14411;DHT22;7290;50.854;4.354;2023-06-04T14:36:43;27.40;54.20
14411;DHT22;7290;50.854;4.354;2023-06-04T14:39:09;27.70;53.90
14411;DHT22;7290;50.854;4.354;2023-06-04T14:41:36;27.60;53.30
14411;DHT22;7290;50.854;4.354;2023-06-04T14:44:02;27.30;53.70
14411;DHT22;7290;50.854;4.354;2023-06-04T14:46:29;27.40;53.60
14411;DHT22;7290;50.854;4.354;2023-06-04T14:48:55;27.60;53.20
14411;DHT22;7290;50.854;4.354;2023-06-04T14:51:21;27.60;53.10
14411;DHT22;7290;50.854;4.354;2023-06-04T14:53:47;27.40;53.40
14411;DHT22;7290;50.854;4.354;2023-06-04T14:56:14;27.30;53.80
14411;DHT22;7290;50.854;4.354;2023-06-04T14:58:40;26.90;54.20
14411;DHT22;7290;50.854;4.354;2023-06-04T15:01:06;26.80;53.40
14411;DHT22;7290;50.854;4.354;2023-06-04T15:03:34;26.70;54.00
14411;DHT22;7290;50.854;4.354;2023-06-04T15:06:03;27.00;54.00
14411;DHT22;7290;50.854;4.354;2023-06-04T15:08:29;27.40;53.50
14411;DHT22;7290;50.854;4.354;2023-06-04T15:10:55;27.70;53.10
14411;DHT22;7290;50.854;4.354;2023-06-04T15:13:21;27.80;53.00
14411;DHT22;7290;50.854;4.354;2023-06-04T15:15:47;27.50;53.10
14411;DHT22;7290;50.854;4.354;2023-06-04T15:18:13;26.90;53.80
14411;DHT22;7290;50.854;4.354;2023-06-04T15:20:40;26.80;54.20
14411;DHT22;7290;50.854;4.354;2023-06-04T15:23:06;26.90;54.10
14411;DHT22;7290;50.854;4.354;2023-06-04T15:25:32;27.00;53.60
14411;DHT22;7290;50.854;4.354;2023-06-04T15:27:59;26.70;53.50
14411;DHT22;7290;50.854;4.354;2023-06-04T15:30:25;26.90;53.70
14411;DHT22;7290;50.854;4.354;2023-06-04T15:32:51;27.20;53.30
14411;DHT22;7290;50.854;4.354;2023-06-04T15:35:17;27.00;53.30
14411;DHT22;7290;50.854;4.354;2023-06-04T15:37:44;26.90;53.30
14411;DHT22;7290;50.854;4.354;2023-06-04T15:40:11;26.80;53.10
14411;DHT22;7290;50.854;4.354;2023-06-04T15:42:37;26.30;53.60